sensor_id;sensor_type;location;lat;lon;timestamp;P1;durP1;ratioP1;P2;durP2;ratioP2
18188;SDS011;9219;50.396;8.546;2022-07-10T00:00:29;6.10;;;2.60;;
18188;SDS011;9219;50.396;8.546;2022-07-10T00:02:58;7.43;;;3.10;;
18188;SDS011;9219;50.396;8.546;2022-07-10T00:10:31;11.20;;;2.80;;
18188;SDS011;9219;50.396;8.546;2022-07-10T00:12:59;4.53;;;3.00;;
18188;SDS011;9219;50.396;8.546;2022-07-10T00:15:27;9.87;;;4.20;;
18188;SDS011;9219;50.396;8.546;2022-07-10T00:17:57;4.53;;;3.53;;
18188;SDS011;9219;50.396;8.546;2022-07-10T00:20:25;5.93;;;3.43;;
18188;SDS011;9219;50.396;8.546;2022-07-10T00:22:52;7.90;;;3.53;;
18188;SDS011;9219;50.396;8.546;2022-07-10T00:25:26;8.70;;;4.27;;
18188;SDS011;9219;50.396;8.546;2022-07-10T00:27:55;5.83;;;3.40;;
18188;SDS011;9219;50.396;8.546;2022-07-10T00:33:07;7.33;;;3.50;;
18188;SDS011;9219;50.396;8.546;2022-07-10T00:35:34;7.63;;;5.13;;
18188;SDS011;9219;50.396;8.546;2022-07-10T00:38:02;6.10;;;4.10;;
18188;SDS011;9219;50.396;8.546;2022-07-10T00:40:32;8.47;;;3.73;;
18188;SDS011;9219;50.396;8.546;2022-07-10T00:43:00;10.33;;;4.40;;
18188;SDS011;9219;50.396;8.546;2022-07-10T00:45:27;6.53;;;4.47;;
18188;SDS011;9219;50.396;8.546;2022-07-10T00:47:55;5.90;;;4.63;;
18188;SDS011;9219;50.396;8.546;2022-07-10T00:53:04;6.93;;;4.30;;
18188;SDS011;9219;50.396;8.546;2022-07-10T00:55:32;17.10;;;4.83;;
18188;SDS011;9219;50.396;8.546;2022-07-10T00:58:04;7.43;;;4.20;;
18188;SDS011;9219;50.396;8.546;2022-07-10T01:00:35;11.23;;;4.93;;
18188;SDS011;9219;50.396;8.546;2022-07-10T01:03:04;7.50;;;4.80;;
18188;SDS011;9219;50.396;8.546;2022-07-10T01:05:32;10.00;;;4.97;;
18188;SDS011;9219;50.396;8.546;2022-07-10T01:07:59;9.00;;;4.70;;
18188;SDS011;9219;50.396;8.546;2022-07-10T01:10:29;5.63;;;3.93;;
18188;SDS011;9219;50.396;8.546;2022-07-10T01:13:09;5.80;;;4.20;;
18188;SDS011;9219;50.396;8.546;2022-07-10T01:15:37;5.53;;;3.97;;
18188;SDS011;9219;50.396;8.546;2022-07-10T01:18:05;4.50;;;3.93;;
18188;SDS011;9219;50.396;8.546;2022-07-10T01:20:33;7.53;;;3.97;;
18188;SDS011;9219;50.396;8.546;2022-07-10T01:23:01;8.77;;;3.63;;
18188;SDS011;9219;50.396;8.546;2022-07-10T01:25:29;6.37;;;4.00;;
18188;SDS011;9219;50.396;8.546;2022-07-10T01:27:57;9.60;;;3.73;;
18188;SDS011;9219;50.396;8.546;2022-07-10T01:33:16;9.30;;;3.73;;
18188;SDS011;9219;50.396;8.546;2022-07-10T01:35:44;9.93;;;4.30;;
18188;SDS011;9219;50.396;8.546;2022-07-10T01:38:12;12.00;;;3.87;;
18188;SDS011;9219;50.396;8.546;2022-07-10T01:40:39;7.70;;;4.17;;
18188;SDS011;9219;50.396;8.546;2022-07-10T01:43:07;7.23;;;3.80;;
18188;SDS011;9219;50.396;8.546;2022-07-10T01:45:34;8.63;;;3.93;;
18188;SDS011;9219;50.396;8.546;2022-07-10T01:48:01;6.37;;;4.83;;
18188;SDS011;9219;50.396;8.546;2022-07-10T01:50:30;9.50;;;4.00;;
18188;SDS011;9219;50.396;8.546;2022-07-10T02:03:48;7.53;;;3.20;;
18188;SDS011;9219;50.396;8.546;2022-07-10T02:06:34;5.23;;;2.97;;
18188;SDS011;9219;50.396;8.546;2022-07-10T02:09:01;7.80;;;2.93;;
18188;SDS011;9219;50.396;8.546;2022-07-10T02:11:29;3.47;;;3.17;;
18188;SDS011;9219;50.396;8.546;2022-07-10T02:13:56;6.17;;;4.23;;
18188;SDS011;9219;50.396;8.546;2022-07-10T02:16:23;6.70;;;3.40;;
18188;SDS011;9219;50.396;8.546;2022-07-10T02:18:52;7.40;;;3.67;;
18188;SDS011;9219;50.396;8.546;2022-07-10T02:26:26;9.00;;;4.50;;
18188;SDS011;9219;50.396;8.546;2022-07-10T02:28:53;4.80;;;3.27;;
18188;SDS011;9219;50.396;8.546;2022-07-10T02:31:21;5.97;;;3.23;;
18188;SDS011;9219;50.396;8.546;2022-07-10T02:33:49;8.73;;;3.83;;
18188;SDS011;9219;50.396;8.546;2022-07-10T02:36:18;10.57;;;3.80;;
18188;SDS011;9219;50.396;8.546;2022-07-10T02:38:46;7.43;;;3.10;;
18188;SDS011;9219;50.396;8.546;2022-07-10T02:41:13;7.47;;;3.73;;
18188;SDS011;9219;50.396;8.546;2022-07-10T02:51:29;11.70;;;4.33;;
18188;SDS011;9219;50.396;8.546;2022-07-10T02:53:57;5.27;;;3.50;;
18188;SDS011;9219;50.396;8.546;2022-07-10T02:56:26;6.73;;;3.17;;
18188;SDS011;9219;50.396;8.546;2022-07-10T02:58:53;6.77;;;3.27;;
18188;SDS011;9219;50.396;8.546;2022-07-10T03:01:21;4.33;;;2.83;;
18188;SDS011;9219;50.396;8.546;2022-07-10T03:03:49;5.97;;;2.63;;
18188;SDS011;9219;50.396;8.546;2022-07-10T03:06:17;9.83;;;2.90;;
18188;SDS011;9219;50.396;8.546;2022-07-10T03:08:51;6.27;;;3.17;;
18188;SDS011;9219;50.396;8.546;2022-07-10T03:14:11;9.50;;;2.93;;
18188;SDS011;9219;50.396;8.546;2022-07-10T03:16:38;8.40;;;3.47;;
18188;SDS011;9219;50.396;8.546;2022-07-10T03:19:06;5.83;;;3.07;;
18188;SDS011;9219;50.396;8.546;2022-07-10T03:21:34;7.50;;;2.93;;
18188;SDS011;9219;50.396;8.546;2022-07-10T03:24:02;6.67;;;2.80;;
18188;SDS011;9219;50.396;8.546;2022-07-10T03:26:29;8.57;;;2.67;;
18188;SDS011;9219;50.396;8.546;2022-07-10T03:28:57;7.03;;;2.30;;
18188;SDS011;9219;50.396;8.546;2022-07-10T03:34:11;10.03;;;3.37;;
18188;SDS011;9219;50.396;8.546;2022-07-10T03:36:39;12.23;;;2.90;;
18188;SDS011;9219;50.396;8.546;2022-07-10T03:39:06;8.83;;;2.80;;
18188;SDS011;9219;50.396;8.546;2022-07-10T03:41:34;8.30;;;3.33;;
18188;SDS011;9219;50.396;8.546;2022-07-10T03:44:01;8.80;;;3.07;;
18188;SDS011;9219;50.396;8.546;2022-07-10T03:46:29;5.30;;;2.40;;
18188;SDS011;9219;50.396;8.546;2022-07-10T03:48:57;6.57;;;2.33;;
18188;SDS011;9219;50.396;8.546;2022-07-10T03:51:26;6.20;;;3.03;;
18188;SDS011;9219;50.396;8.546;2022-07-10T03:59:00;6.37;;;1.90;;
18188;SDS011;9219;50.396;8.546;2022-07-10T04:01:28;7.87;;;2.40;;
18188;SDS011;9219;50.396;8.546;2022-07-10T04:03:56;9.10;;;2.47;;
18188;SDS011;9219;50.396;8.546;2022-07-10T04:06:24;4.33;;;2.13;;
18188;SDS011;9219;50.396;8.546;2022-07-10T04:08:52;5.80;;;2.30;;
18188;SDS011;9219;50.396;8.546;2022-07-10T04:11:19;5.37;;;2.23;;
18188;SDS011;9219;50.396;8.546;2022-07-10T04:13:47;4.03;;;2.70;;
18188;SDS011;9219;50.396;8.546;2022-07-10T04:21:20;9.33;;;2.33;;
18188;SDS011;9219;50.396;8.546;2022-07-10T04:23:47;3.33;;;2.07;;
18188;SDS011;9219;50.396;8.546;2022-07-10T04:26:15;5.90;;;1.90;;
18188;SDS011;9219;50.396;8.546;2022-07-10T04:28:43;5.57;;;2.43;;
18188;SDS011;9219;50.396;8.546;2022-07-10T04:31:11;8.73;;;1.70;;
18188;SDS011;9219;50.396;8.546;2022-07-10T04:33:39;6.03;;;1.97;;
18188;SDS011;9219;50.396;8.546;2022-07-10T04:36:07;7.13;;;1.80;;
18188;SDS011;9219;50.396;8.546;2022-07-10T04:38:35;3.00;;;1.87;;
18188;SDS011;9219;50.396;8.546;2022-07-10T04:46:24;3.37;;;1.70;;
18188;SDS011;9219;50.396;8.546;2022-07-10T04:48:52;4.33;;;1.60;;
18188;SDS011;9219;50.396;8.546;2022-07-10T04:51:20;2.73;;;1.50;;
18188;SDS011;9219;50.396;8.546;2022-07-10T04:53:49;9.10;;;2.33;;
18188;SDS011;9219;50.396;8.546;2022-07-10T04:56:16;5.80;;;2.00;;
18188;SDS011;9219;50.396;8.546;2022-07-10T04:58:45;6.03;;;1.80;;
18188;SDS011;9219;50.396;8.546;2022-07-10T05:01:18;2.53;;;1.47;;
18188;SDS011;9219;50.396;8.546;2022-07-10T05:03:48;7.07;;;1.70;;
18188;SDS011;9219;50.396;8.546;2022-07-10T05:11:22;12.13;;;2.23;;
18188;SDS011;9219;50.396;8.546;2022-07-10T05:13:49;4.63;;;1.63;;
18188;SDS011;9219;50.396;8.546;2022-07-10T05:16:17;2.70;;;1.40;;
18188;SDS011;9219;50.396;8.546;2022-07-10T05:18:46;7.23;;;1.40;;
18188;SDS011;9219;50.396;8.546;2022-07-10T05:21:14;4.20;;;1.47;;
18188;SDS011;9219;50.396;8.546;2022-07-10T05:23:42;4.33;;;2.00;;
18188;SDS011;9219;50.396;8.546;2022-07-10T05:26:09;4.17;;;1.63;;
18188;SDS011;9219;50.396;8.546;2022-07-10T05:31:55;4.67;;;2.00;;
18188;SDS011;9219;50.396;8.546;2022-07-10T05:34:23;2.20;;;1.43;;
18188;SDS011;9219;50.396;8.546;2022-07-10T05:36:51;3.73;;;2.17;;
18188;SDS011;9219;50.396;8.546;2022-07-10T05:39:18;5.60;;;1.83;;
18188;SDS011;9219;50.396;8.546;2022-07-10T05:41:45;9.30;;;2.27;;
18188;SDS011;9219;50.396;8.546;2022-07-10T05:44:13;10.97;;;1.90;;
18188;SDS011;9219;50.396;8.546;2022-07-10T05:46:41;5.60;;;2.10;;
18188;SDS011;9219;50.396;8.546;2022-07-10T05:49:11;7.27;;;1.57;;
18188;SDS011;9219;50.396;8.546;2022-07-10T05:56:49;9.93;;;2.20;;
18188;SDS011;9219;50.396;8.546;2022-07-10T05:59:17;4.90;;;1.70;;
18188;SDS011;9219;50.396;8.546;2022-07-10T06:01:45;2.77;;;1.30;;
18188;SDS011;9219;50.396;8.546;2022-07-10T06:04:13;4.13;;;1.60;;
18188;SDS011;9219;50.396;8.546;2022-07-10T06:06:43;7.93;;;1.57;;
18188;SDS011;9219;50.396;8.546;2022-07-10T06:09:12;6.27;;;1.60;;
18188;SDS011;9219;50.396;8.546;2022-07-10T06:11:39;4.00;;;1.70;;
18188;SDS011;9219;50.396;8.546;2022-07-10T06:17:33;5.77;;;1.70;;
18188;SDS011;9219;50.396;8.546;2022-07-10T06:20:01;4.70;;;1.67;;
18188;SDS011;9219;50.396;8.546;2022-07-10T06:22:28;3.30;;;1.40;;
18188;SDS011;9219;50.396;8.546;2022-07-10T06:24:59;5.27;;;1.97;;
18188;SDS011;9219;50.396;8.546;2022-07-10T06:27:27;5.23;;;1.77;;
18188;SDS011;9219;50.396;8.546;2022-07-10T06:29:55;6.27;;;1.83;;
18188;SDS011;9219;50.396;8.546;2022-07-10T06:32:25;6.83;;;1.87;;
18188;SDS011;9219;50.396;8.546;2022-07-10T06:43:03;3.57;;;1.23;;
18188;SDS011;9219;50.396;8.546;2022-07-10T06:45:30;3.97;;;1.40;;
18188;SDS011;9219;50.396;8.546;2022-07-10T06:47:58;3.70;;;1.43;;
18188;SDS011;9219;50.396;8.546;2022-07-10T06:50:26;6.83;;;1.80;;
18188;SDS011;9219;50.396;8.546;2022-07-10T06:52:57;4.47;;;1.67;;
18188;SDS011;9219;50.396;8.546;2022-07-10T06:55:24;3.03;;;1.37;;
18188;SDS011;9219;50.396;8.546;2022-07-10T06:57:53;4.23;;;1.80;;
18188;SDS011;9219;50.396;8.546;2022-07-10T07:00:22;2.53;;;1.87;;
18188;SDS011;9219;50.396;8.546;2022-07-10T07:07:55;5.60;;;1.50;;
18188;SDS011;9219;50.396;8.546;2022-07-10T07:10:23;8.73;;;1.53;;
18188;SDS011;9219;50.396;8.546;2022-07-10T07:12:50;5.83;;;1.37;;
18188;SDS011;9219;50.396;8.546;2022-07-10T07:15:17;9.87;;;1.53;;
18188;SDS011;9219;50.396;8.546;2022-07-10T07:17:49;9.23;;;1.83;;
18188;SDS011;9219;50.396;8.546;2022-07-10T07:20:34;4.90;;;1.57;;
18188;SDS011;9219;50.396;8.546;2022-07-10T07:23:23;4.77;;;1.47;;
18188;SDS011;9219;50.396;8.546;2022-07-10T07:31:02;4.43;;;1.50;;
18188;SDS011;9219;50.396;8.546;2022-07-10T07:33:33;3.47;;;1.43;;
18188;SDS011;9219;50.396;8.546;2022-07-10T07:36:02;3.27;;;1.60;;
18188;SDS011;9219;50.396;8.546;2022-07-10T07:38:29;5.23;;;1.40;;
18188;SDS011;9219;50.396;8.546;2022-07-10T07:40:56;4.73;;;1.57;;
18188;SDS011;9219;50.396;8.546;2022-07-10T07:43:24;5.67;;;1.60;;
18188;SDS011;9219;50.396;8.546;2022-07-10T07:45:51;4.00;;;1.53;;
18188;SDS011;9219;50.396;8.546;2022-07-10T07:50:59;2.13;;;1.53;;
18188;SDS011;9219;50.396;8.546;2022-07-10T07:53:28;3.47;;;1.30;;
18188;SDS011;9219;50.396;8.546;2022-07-10T07:55:55;5.97;;;1.40;;
18188;SDS011;9219;50.396;8.546;2022-07-10T07:58:22;4.83;;;1.67;;
18188;SDS011;9219;50.396;8.546;2022-07-10T08:00:51;3.90;;;1.57;;
18188;SDS011;9219;50.396;8.546;2022-07-10T08:03:18;5.50;;;1.47;;
18188;SDS011;9219;50.396;8.546;2022-07-10T08:05:46;4.97;;;2.00;;
18188;SDS011;9219;50.396;8.546;2022-07-10T08:10:56;6.80;;;1.30;;
18188;SDS011;9219;50.396;8.546;2022-07-10T08:13:24;3.47;;;1.53;;
18188;SDS011;9219;50.396;8.546;2022-07-10T08:15:52;6.87;;;1.77;;
18188;SDS011;9219;50.396;8.546;2022-07-10T08:18:25;3.70;;;1.60;;
18188;SDS011;9219;50.396;8.546;2022-07-10T08:20:53;3.67;;;1.40;;
18188;SDS011;9219;50.396;8.546;2022-07-10T08:23:21;7.83;;;1.80;;
18188;SDS011;9219;50.396;8.546;2022-07-10T08:25:48;6.40;;;1.53;;
18188;SDS011;9219;50.396;8.546;2022-07-10T08:33:20;3.60;;;1.23;;
18188;SDS011;9219;50.396;8.546;2022-07-10T08:35:47;2.77;;;1.30;;
18188;SDS011;9219;50.396;8.546;2022-07-10T08:38:15;6.37;;;1.43;;
18188;SDS011;9219;50.396;8.546;2022-07-10T08:40:42;2.63;;;1.40;;
18188;SDS011;9219;50.396;8.546;2022-07-10T08:43:11;3.57;;;0.97;;
18188;SDS011;9219;50.396;8.546;2022-07-10T08:45:39;5.07;;;1.20;;
18188;SDS011;9219;50.396;8.546;2022-07-10T08:48:07;2.13;;;1.27;;
18188;SDS011;9219;50.396;8.546;2022-07-10T08:55:48;3.40;;;1.13;;
18188;SDS011;9219;50.396;8.546;2022-07-10T08:58:16;9.17;;;1.70;;
18188;SDS011;9219;50.396;8.546;2022-07-10T09:01:09;6.97;;;2.07;;
18188;SDS011;9219;50.396;8.546;2022-07-10T09:07:13;5.43;;;2.03;;
18188;SDS011;9219;50.396;8.546;2022-07-10T09:09:59;8.00;;;2.07;;
18188;SDS011;9219;50.396;8.546;2022-07-10T09:19:16;5.87;;;1.77;;
18188;SDS011;9219;50.396;8.546;2022-07-10T09:21:47;4.00;;;1.40;;
18188;SDS011;9219;50.396;8.546;2022-07-10T09:24:34;3.93;;;1.20;;
18188;SDS011;9219;50.396;8.546;2022-07-10T09:27:22;4.83;;;1.63;;
18188;SDS011;9219;50.396;8.546;2022-07-10T09:30:34;5.33;;;1.40;;
18188;SDS011;9219;50.396;8.546;2022-07-10T09:38:49;5.93;;;1.30;;
18188;SDS011;9219;50.396;8.546;2022-07-10T09:41:21;5.00;;;1.33;;
18188;SDS011;9219;50.396;8.546;2022-07-10T09:43:51;5.83;;;1.83;;
18188;SDS011;9219;50.396;8.546;2022-07-10T09:46:20;6.63;;;1.40;;
18188;SDS011;9219;50.396;8.546;2022-07-10T09:48:57;2.53;;;1.23;;
18188;SDS011;9219;50.396;8.546;2022-07-10T09:51:32;6.33;;;1.67;;
18188;SDS011;9219;50.396;8.546;2022-07-10T09:54:03;5.60;;;1.73;;
18188;SDS011;9219;50.396;8.546;2022-07-10T09:59:18;3.93;;;1.53;;
18188;SDS011;9219;50.396;8.546;2022-07-10T10:01:48;3.83;;;1.10;;
18188;SDS011;9219;50.396;8.546;2022-07-10T10:04:17;3.57;;;1.73;;
18188;SDS011;9219;50.396;8.546;2022-07-10T10:06:49;9.93;;;1.23;;
18188;SDS011;9219;50.396;8.546;2022-07-10T10:09:20;3.23;;;1.10;;
18188;SDS011;9219;50.396;8.546;2022-07-10T10:11:51;2.60;;;1.20;;
18188;SDS011;9219;50.396;8.546;2022-07-10T10:14:24;4.87;;;1.30;;
18188;SDS011;9219;50.396;8.546;2022-07-10T10:16:55;3.93;;;1.13;;
18188;SDS011;9219;50.396;8.546;2022-07-10T10:19:48;5.77;;;1.40;;
18188;SDS011;9219;50.396;8.546;2022-07-10T10:22:44;7.60;;;1.17;;
18188;SDS011;9219;50.396;8.546;2022-07-10T10:25:13;3.97;;;1.00;;
18188;SDS011;9219;50.396;8.546;2022-07-10T10:27:42;3.90;;;1.10;;
18188;SDS011;9219;50.396;8.546;2022-07-10T10:30:11;3.63;;;1.47;;
18188;SDS011;9219;50.396;8.546;2022-07-10T10:32:39;3.37;;;1.00;;
18188;SDS011;9219;50.396;8.546;2022-07-10T10:35:08;15.07;;;2.33;;
18188;SDS011;9219;50.396;8.546;2022-07-10T10:42:43;3.20;;;1.30;;
18188;SDS011;9219;50.396;8.546;2022-07-10T10:45:24;5.03;;;1.23;;
18188;SDS011;9219;50.396;8.546;2022-07-10T10:47:57;6.27;;;1.20;;
18188;SDS011;9219;50.396;8.546;2022-07-10T10:50:46;2.73;;;1.00;;
18188;SDS011;9219;50.396;8.546;2022-07-10T10:53:15;3.43;;;1.27;;
18188;SDS011;9219;50.396;8.546;2022-07-10T11:07:12;3.00;;;1.20;;
18188;SDS011;9219;50.396;8.546;2022-07-10T11:09:39;6.13;;;1.50;;
18188;SDS011;9219;50.396;8.546;2022-07-10T11:12:07;2.67;;;0.90;;
18188;SDS011;9219;50.396;8.546;2022-07-10T11:14:39;2.93;;;1.10;;
18188;SDS011;9219;50.396;8.546;2022-07-10T11:17:09;5.50;;;1.40;;
18188;SDS011;9219;50.396;8.546;2022-07-10T11:19:36;5.23;;;1.27;;
18188;SDS011;9219;50.396;8.546;2022-07-10T11:22:13;5.00;;;1.53;;
18188;SDS011;9219;50.396;8.546;2022-07-10T11:30:14;2.73;;;0.77;;
18188;SDS011;9219;50.396;8.546;2022-07-10T11:32:42;6.77;;;1.07;;
18188;SDS011;9219;50.396;8.546;2022-07-10T11:35:10;3.83;;;1.03;;
18188;SDS011;9219;50.396;8.546;2022-07-10T11:37:48;8.07;;;1.30;;
18188;SDS011;9219;50.396;8.546;2022-07-10T11:40:17;3.13;;;0.70;;
18188;SDS011;9219;50.396;8.546;2022-07-10T11:42:52;4.47;;;1.13;;
18188;SDS011;9219;50.396;8.546;2022-07-10T11:45:26;4.87;;;1.00;;
18188;SDS011;9219;50.396;8.546;2022-07-10T11:53:05;4.30;;;1.00;;
18188;SDS011;9219;50.396;8.546;2022-07-10T11:55:33;5.20;;;1.13;;
18188;SDS011;9219;50.396;8.546;2022-07-10T11:58:15;3.60;;;0.93;;
18188;SDS011;9219;50.396;8.546;2022-07-10T12:00:43;4.10;;;1.33;;
18188;SDS011;9219;50.396;8.546;2022-07-10T12:03:23;5.00;;;1.00;;
18188;SDS011;9219;50.396;8.546;2022-07-10T12:05:55;2.13;;;0.67;;
18188;SDS011;9219;50.396;8.546;2022-07-10T12:08:29;3.93;;;1.10;;
18188;SDS011;9219;50.396;8.546;2022-07-10T12:16:01;3.40;;;0.77;;
18188;SDS011;9219;50.396;8.546;2022-07-10T12:18:29;2.20;;;1.07;;
18188;SDS011;9219;50.396;8.546;2022-07-10T12:20:59;2.03;;;1.03;;
18188;SDS011;9219;50.396;8.546;2022-07-10T12:23:27;5.30;;;0.97;;
18188;SDS011;9219;50.396;8.546;2022-07-10T12:25:55;2.93;;;1.03;;
18188;SDS011;9219;50.396;8.546;2022-07-10T12:28:23;2.57;;;0.90;;
18188;SDS011;9219;50.396;8.546;2022-07-10T12:30:51;2.80;;;1.10;;
18188;SDS011;9219;50.396;8.546;2022-07-10T12:33:21;5.10;;;1.33;;
18188;SDS011;9219;50.396;8.546;2022-07-10T12:41:12;3.67;;;1.00;;
18188;SDS011;9219;50.396;8.546;2022-07-10T12:43:48;3.60;;;1.17;;
18188;SDS011;9219;50.396;8.546;2022-07-10T12:46:17;4.13;;;1.20;;
18188;SDS011;9219;50.396;8.546;2022-07-10T12:49:03;2.40;;;0.80;;
18188;SDS011;9219;50.396;8.546;2022-07-10T12:51:36;1.23;;;1.00;;
18188;SDS011;9219;50.396;8.546;2022-07-10T12:54:34;3.50;;;1.03;;
18188;SDS011;9219;50.396;8.546;2022-07-10T12:57:05;5.77;;;1.70;;
18188;SDS011;9219;50.396;8.546;2022-07-10T13:04:50;1.60;;;1.10;;
18188;SDS011;9219;50.396;8.546;2022-07-10T13:07:19;2.40;;;0.90;;
18188;SDS011;9219;50.396;8.546;2022-07-10T13:09:48;3.93;;;0.90;;
18188;SDS011;9219;50.396;8.546;2022-07-10T13:12:16;2.77;;;1.10;;
18188;SDS011;9219;50.396;8.546;2022-07-10T13:14:43;2.33;;;0.80;;
18188;SDS011;9219;50.396;8.546;2022-07-10T13:17:12;3.03;;;1.20;;
18188;SDS011;9219;50.396;8.546;2022-07-10T13:19:41;1.07;;;0.83;;
18188;SDS011;9219;50.396;8.546;2022-07-10T13:25:08;4.17;;;1.77;;
18188;SDS011;9219;50.396;8.546;2022-07-10T13:27:35;1.27;;;0.97;;
18188;SDS011;9219;50.396;8.546;2022-07-10T13:30:03;3.23;;;1.07;;
18188;SDS011;9219;50.396;8.546;2022-07-10T13:32:31;1.63;;;0.93;;
18188;SDS011;9219;50.396;8.546;2022-07-10T13:35:00;4.43;;;2.30;;
18188;SDS011;9219;50.396;8.546;2022-07-10T13:37:28;2.00;;;1.17;;
18188;SDS011;9219;50.396;8.546;2022-07-10T13:39:56;3.03;;;0.70;;
18188;SDS011;9219;50.396;8.546;2022-07-10T13:42:25;1.90;;;0.83;;
18188;SDS011;9219;50.396;8.546;2022-07-10T13:44:53;7.17;;;1.10;;
18188;SDS011;9219;50.396;8.546;2022-07-10T13:52:50;4.43;;;0.80;;
18188;SDS011;9219;50.396;8.546;2022-07-10T13:55:18;1.60;;;0.80;;
18188;SDS011;9219;50.396;8.546;2022-07-10T13:57:46;2.00;;;0.97;;
18188;SDS011;9219;50.396;8.546;2022-07-10T14:00:13;1.33;;;0.70;;
18188;SDS011;9219;50.396;8.546;2022-07-10T14:02:42;1.73;;;0.70;;
18188;SDS011;9219;50.396;8.546;2022-07-10T14:05:10;1.70;;;0.50;;
18188;SDS011;9219;50.396;8.546;2022-07-10T14:07:37;1.00;;;0.80;;
18188;SDS011;9219;50.396;8.546;2022-07-10T14:10:08;0.70;;;0.57;;
18188;SDS011;9219;50.396;8.546;2022-07-10T14:18:03;0.87;;;0.60;;
18188;SDS011;9219;50.396;8.546;2022-07-10T14:20:31;1.20;;;0.80;;
18188;SDS011;9219;50.396;8.546;2022-07-10T14:23:20;1.83;;;0.90;;
18188;SDS011;9219;50.396;8.546;2022-07-10T14:25:49;0.90;;;0.70;;
18188;SDS011;9219;50.396;8.546;2022-07-10T14:28:17;1.17;;;0.50;;
18188;SDS011;9219;50.396;8.546;2022-07-10T14:30:44;0.67;;;0.50;;
18188;SDS011;9219;50.396;8.546;2022-07-10T14:33:18;0.50;;;0.50;;
18188;SDS011;9219;50.396;8.546;2022-07-10T14:40:57;1.63;;;0.50;;
18188;SDS011;9219;50.396;8.546;2022-07-10T14:43:31;3.50;;;0.73;;
18188;SDS011;9219;50.396;8.546;2022-07-10T14:46:00;0.30;;;0.30;;
18188;SDS011;9219;50.396;8.546;2022-07-10T14:48:33;1.70;;;0.50;;
18188;SDS011;9219;50.396;8.546;2022-07-10T14:51:02;0.30;;;0.30;;
18188;SDS011;9219;50.396;8.546;2022-07-10T14:53:29;2.10;;;0.60;;
18188;SDS011;9219;50.396;8.546;2022-07-10T14:56:02;0.43;;;0.43;;
18188;SDS011;9219;50.396;8.546;2022-07-10T15:04:24;2.37;;;0.70;;
18188;SDS011;9219;50.396;8.546;2022-07-10T15:06:51;0.50;;;0.50;;
18188;SDS011;9219;50.396;8.546;2022-07-10T15:09:19;0.37;;;0.37;;
18188;SDS011;9219;50.396;8.546;2022-07-10T15:11:49;3.43;;;0.90;;
18188;SDS011;9219;50.396;8.546;2022-07-10T15:14:19;0.50;;;0.50;;
18188;SDS011;9219;50.396;8.546;2022-07-10T15:16:47;0.87;;;0.53;;
18188;SDS011;9219;50.396;8.546;2022-07-10T15:19:14;0.80;;;0.50;;
18188;SDS011;9219;50.396;8.546;2022-07-10T15:29:37;0.40;;;0.40;;
18188;SDS011;9219;50.396;8.546;2022-07-10T15:32:05;0.47;;;0.47;;
18188;SDS011;9219;50.396;8.546;2022-07-10T15:34:33;0.50;;;0.50;;
18188;SDS011;9219;50.396;8.546;2022-07-10T15:37:03;2.43;;;0.50;;
18188;SDS011;9219;50.396;8.546;2022-07-10T15:39:32;0.30;;;0.30;;
18188;SDS011;9219;50.396;8.546;2022-07-10T15:42:07;0.40;;;0.40;;
18188;SDS011;9219;50.396;8.546;2022-07-10T15:44:36;0.77;;;0.60;;
18188;SDS011;9219;50.396;8.546;2022-07-10T15:49:49;1.67;;;0.67;;
18188;SDS011;9219;50.396;8.546;2022-07-10T15:52:18;1.87;;;0.77;;
18188;SDS011;9219;50.396;8.546;2022-07-10T15:54:45;1.37;;;0.60;;
18188;SDS011;9219;50.396;8.546;2022-07-10T15:57:12;1.03;;;0.60;;
18188;SDS011;9219;50.396;8.546;2022-07-10T15:59:43;0.63;;;0.63;;
18188;SDS011;9219;50.396;8.546;2022-07-10T16:02:10;0.63;;;0.63;;
18188;SDS011;9219;50.396;8.546;2022-07-10T16:04:40;1.13;;;0.50;;
18188;SDS011;9219;50.396;8.546;2022-07-10T16:12:17;0.77;;;0.60;;
18188;SDS011;9219;50.396;8.546;2022-07-10T16:14:45;0.97;;;0.70;;
18188;SDS011;9219;50.396;8.546;2022-07-10T16:17:13;1.70;;;0.83;;
18188;SDS011;9219;50.396;8.546;2022-07-10T16:19:41;2.63;;;0.70;;
18188;SDS011;9219;50.396;8.546;2022-07-10T16:22:11;1.10;;;1.00;;
18188;SDS011;9219;50.396;8.546;2022-07-10T16:24:39;1.83;;;0.90;;
18188;SDS011;9219;50.396;8.546;2022-07-10T16:27:23;2.00;;;1.30;;
18188;SDS011;9219;50.396;8.546;2022-07-10T16:29:50;1.27;;;1.10;;
18188;SDS011;9219;50.396;8.546;2022-07-10T16:37:39;1.93;;;1.53;;
18188;SDS011;9219;50.396;8.546;2022-07-10T16:40:09;1.63;;;1.33;;
18188;SDS011;9219;50.396;8.546;2022-07-10T16:42:37;1.33;;;1.23;;
18188;SDS011;9219;50.396;8.546;2022-07-10T16:45:04;2.33;;;1.70;;
18188;SDS011;9219;50.396;8.546;2022-07-10T16:47:37;4.57;;;1.70;;
18188;SDS011;9219;50.396;8.546;2022-07-10T16:50:08;1.63;;;1.50;;
18188;SDS011;9219;50.396;8.546;2022-07-10T16:52:41;3.17;;;1.87;;
18188;SDS011;9219;50.396;8.546;2022-07-10T16:59:56;2.13;;;1.93;;
18188;SDS011;9219;50.396;8.546;2022-07-10T17:02:24;3.80;;;2.10;;
18188;SDS011;9219;50.396;8.546;2022-07-10T17:04:52;3.73;;;2.53;;
18188;SDS011;9219;50.396;8.546;2022-07-10T17:07:20;3.47;;;1.97;;
18188;SDS011;9219;50.396;8.546;2022-07-10T17:09:50;2.43;;;2.23;;
18188;SDS011;9219;50.396;8.546;2022-07-10T17:12:19;3.90;;;2.30;;
18188;SDS011;9219;50.396;8.546;2022-07-10T17:14:48;2.73;;;2.53;;
18188;SDS011;9219;50.396;8.546;2022-07-10T17:17:17;2.47;;;2.27;;
18188;SDS011;9219;50.396;8.546;2022-07-10T17:24:52;2.50;;;1.97;;
18188;SDS011;9219;50.396;8.546;2022-07-10T17:27:22;2.27;;;2.00;;
18188;SDS011;9219;50.396;8.546;2022-07-10T17:29:53;2.43;;;2.20;;
18188;SDS011;9219;50.396;8.546;2022-07-10T17:32:21;3.97;;;2.80;;
18188;SDS011;9219;50.396;8.546;2022-07-10T17:34:49;4.77;;;2.90;;
18188;SDS011;9219;50.396;8.546;2022-07-10T17:37:17;2.63;;;2.30;;
18188;SDS011;9219;50.396;8.546;2022-07-10T17:39:45;2.90;;;2.60;;
18188;SDS011;9219;50.396;8.546;2022-07-10T17:45:10;5.90;;;2.80;;
18188;SDS011;9219;50.396;8.546;2022-07-10T17:47:43;2.80;;;2.60;;
18188;SDS011;9219;50.396;8.546;2022-07-10T17:50:10;5.03;;;2.80;;
18188;SDS011;9219;50.396;8.546;2022-07-10T17:52:39;3.37;;;2.97;;
18188;SDS011;9219;50.396;8.546;2022-07-10T17:55:08;2.50;;;2.30;;
18188;SDS011;9219;50.396;8.546;2022-07-10T17:57:36;2.90;;;2.70;;
18188;SDS011;9219;50.396;8.546;2022-07-10T18:00:05;4.30;;;3.27;;
18188;SDS011;9219;50.396;8.546;2022-07-10T18:05:53;3.00;;;2.70;;
18188;SDS011;9219;50.396;8.546;2022-07-10T18:08:21;2.97;;;2.60;;
18188;SDS011;9219;50.396;8.546;2022-07-10T18:10:51;2.90;;;2.70;;
18188;SDS011;9219;50.396;8.546;2022-07-10T18:13:23;3.40;;;2.90;;
18188;SDS011;9219;50.396;8.546;2022-07-10T18:15:51;3.83;;;2.60;;
18188;SDS011;9219;50.396;8.546;2022-07-10T18:18:19;2.63;;;2.43;;
18188;SDS011;9219;50.396;8.546;2022-07-10T18:20:46;3.27;;;2.43;;
18188;SDS011;9219;50.396;8.546;2022-07-10T18:23:15;2.90;;;2.70;;
18188;SDS011;9219;50.396;8.546;2022-07-10T18:30:51;3.67;;;2.73;;
18188;SDS011;9219;50.396;8.546;2022-07-10T18:33:19;3.20;;;2.70;;
18188;SDS011;9219;50.396;8.546;2022-07-10T18:36:25;3.00;;;2.80;;
18188;SDS011;9219;50.396;8.546;2022-07-10T18:38:53;2.83;;;2.63;;
18188;SDS011;9219;50.396;8.546;2022-07-10T18:41:26;3.00;;;2.80;;
18188;SDS011;9219;50.396;8.546;2022-07-10T18:43:53;2.93;;;2.70;;
18188;SDS011;9219;50.396;8.546;2022-07-10T18:46:22;7.67;;;3.33;;
18188;SDS011;9219;50.396;8.546;2022-07-10T18:53:58;3.00;;;2.80;;
18188;SDS011;9219;50.396;8.546;2022-07-10T18:56:26;5.87;;;2.67;;
18188;SDS011;9219;50.396;8.546;2022-07-10T18:58:57;3.47;;;3.17;;
18188;SDS011;9219;50.396;8.546;2022-07-10T19:01:25;4.63;;;3.27;;
18188;SDS011;9219;50.396;8.546;2022-07-10T19:03:52;4.23;;;3.83;;
18188;SDS011;9219;50.396;8.546;2022-07-10T19:06:22;3.53;;;3.27;;
18188;SDS011;9219;50.396;8.546;2022-07-10T19:08:50;4.10;;;3.40;;
18188;SDS011;9219;50.396;8.546;2022-07-10T19:17:11;5.43;;;4.93;;
18188;SDS011;9219;50.396;8.546;2022-07-10T19:19:43;6.20;;;5.40;;
18188;SDS011;9219;50.396;8.546;2022-07-10T19:22:11;6.73;;;6.03;;
18188;SDS011;9219;50.396;8.546;2022-07-10T19:24:41;6.60;;;5.87;;